Decoded Metar for LTBJ (IZMIR in TURKEY) (IATA:ADB) | Meteo·Mobile Aviation Weather
aviador You're here:

LTBJ Decoded Metar

IZMIR in TURKEY
Report Time2019-01-19 01:50:00
UTC Time2019-01-19 02:24:49
Flight Rules vfr VFR
Wind150° at 03 kt
W.Decomp.*RWY 16: 2.9 kt HW 0.7 kt LCW
W.Rank150° ranks 8
Current wind is below 150° avg. (5.4)
Visibility8000 m
Phenomena:Light Rain
Clouds:Scattered 030 Hf
Broken 080 Hf
Expected CloudBase > 400 ft AGL from Temp-Dew spread
Ceiling8,000 ft
Temp06°C (ISA -8)
Dew Point05°C (93% RH)
AAT3.8°C
QNH1019 hPa
Density Alt-679 ft
Elevation394 ft
Report Wrong Elevation
Raw Report
METAR LTBJ 190150Z 15003KT 8000 -RA SCT030 BKN080 06/05 Q1019 NOSIG
RMK RWY16 19004KT 150V220=

Extra information for LTBJ:More info

Metar Taf Metar & Taf Last 4 Metars F.Rules Stats Wind Profile Meteogram Temp Stats Airport Information Weather charts Add Link Nearby VenuesMetar ALERT Operation Metar Decoded Social comments